Time;durP1;ratioP1;P1;durP2;ratioP2;P2;SDS_P1;SDS_P2;PMS_P1;PMS_P2;Temp;Humidity;BMP_temperature;BMP_pressure;BME280_temperature;BME280_humidity;BME280_pressure;Samples;Min_cycle;Max_cycle;Signal;HPM_P1;HPM_P2
2023/12/25 00:01:15;;;;;;;0.70;0.70;;;12.00;99.90;;;;;;5117653;28;20051;-74
2023/12/25 00:03:41;;;;;;;0.73;0.73;;;12.00;99.90;;;;;;5117496;28;20409;-75
2023/12/25 00:06:06;;;;;;;0.75;0.75;;;12.00;99.90;;;;;;5116977;28;20506;-74
2023/12/25 00:08:32;;;;;;;0.70;0.70;;;12.00;99.90;;;;;;5117212;28;20086;-75
2023/12/25 00:10:57;;;;;;;1.38;1.27;;;12.10;99.90;;;;;;5117257;27;20105;-75
2023/12/25 00:13:23;;;;;;;0.70;0.70;;;12.10;99.90;;;;;;5117038;28;20529;-74
2023/12/25 00:15:49;;;;;;;0.70;0.70;;;12.40;99.90;;;;;;5117346;28;20032;-74
2023/12/25 00:18:14;;;;;;;0.70;0.70;;;12.00;99.90;;;;;;5116735;28;20138;-74
2023/12/25 00:20:42;;;;;;;1.25;1.15;;;12.00;99.90;;;;;;5116973;28;20078;-75
2023/12/25 00:23:07;;;;;;;0.70;0.70;;;12.00;99.90;;;;;;5116865;28;20384;-75
2023/12/25 00:25:33;;;;;;;0.70;0.70;;;12.00;99.90;;;;;;5116790;28;20157;-75
2023/12/25 00:27:59;;;;;;;0.70;0.70;;;12.00;99.90;;;;;;5117244;27;20063;-75
2023/12/25 00:30:24;;;;;;;0.70;0.70;;;12.00;99.90;;;;;;5116511;28;20379;-75
2023/12/25 00:32:50;;;;;;;0.70;0.70;;;12.00;99.90;;;;;;5117267;27;20046;-75
2023/12/25 00:35:15;;;;;;;0.63;0.63;;;12.00;99.90;;;;;;5116342;28;20035;-75
2023/12/25 00:37:41;;;;;;;0.70;0.70;;;11.90;99.90;;;;;;5115554;28;20126;-75
2023/12/25 00:40:07;;;;;;;0.70;0.70;;;11.90;99.90;;;;;;5116136;28;20088;-74
2023/12/25 00:42:33;;;;;;;0.70;0.70;;;11.90;99.90;;;;;;5116477;28;20043;-74
2023/12/25 00:44:58;;;;;;;0.60;0.60;;;11.90;99.90;;;;;;5116403;28;20035;-75
2023/12/25 00:47:24;;;;;;;0.70;0.70;;;12.20;99.90;;;;;;5104093;28;20122;-74
2023/12/25 00:49:50;;;;;;;0.80;0.80;;;11.90;99.90;;;;;;5095852;28;20040;-75
2023/12/25 00:52:17;;;;;;;1.10;1.08;;;11.90;99.90;;;;;;5095949;28;20044;-75
2023/12/25 00:54:43;;;;;;;0.60;0.60;;;11.80;99.90;;;;;;5095769;28;20044;-75
2023/12/25 00:57:09;;;;;;;0.70;0.70;;;11.80;99.90;;;;;;5096202;28;20047;-75
2023/12/25 00:59:35;;;;;;;0.68;0.68;;;11.90;99.90;;;;;;5096134;28;20028;-74
2023/12/25 01:02:00;;;;;;;2.30;2.10;;;11.80;99.90;;;;;;5095715;28;20153;-75
2023/12/25 01:04:26;;;;;;;0.70;0.70;;;11.80;99.90;;;;;;5095647;28;20464;-75
2023/12/25 01:06:52;;;;;;;0.95;0.95;;;11.70;99.90;;;;;;5095665;28;20043;-74
2023/12/25 01:09:18;;;;;;;0.80;0.80;;;11.70;99.90;;;;;;5095395;28;20418;-74
2023/12/25 01:11:44;;;;;;;0.80;0.80;;;11.80;99.90;;;;;;5095987;28;20472;-74
2023/12/25 01:14:10;;;;;;;0.70;0.70;;;11.70;99.90;;;;;;5095477;28;20085;-75
2023/12/25 01:16:37;;;;;;;0.70;0.70;;;11.60;99.90;;;;;;5095437;28;20043;-75
2023/12/25 01:19:02;;;;;;;0.70;0.70;;;11.60;99.90;;;;;;5095039;28;20492;-75
2023/12/25 01:21:28;;;;;;;0.70;0.70;;;11.60;99.90;;;;;;5095378;28;20081;-75
2023/12/25 01:23:54;;;;;;;1.58;1.48;;;11.70;99.90;;;;;;5095284;28;20044;-75
2023/12/25 01:26:19;;;;;;;1.02;1.02;;;11.80;99.90;;;;;;5095244;28;20047;-75
2023/12/25 01:28:45;;;;;;;0.70;0.70;;;11.50;99.90;;;;;;5095501;28;20051;-75
2023/12/25 01:31:11;;;;;;;0.70;0.70;;;11.50;99.90;;;;;;5095188;28;20460;-74
2023/12/25 01:33:36;;;;;;;0.70;0.70;;;11.50;99.90;;;;;;5095103;28;20377;-75
2023/12/25 01:36:02;;;;;;;0.70;0.70;;;11.50;99.90;;;;;;5093981;28;20127;-74
2023/12/25 01:38:28;;;;;;;1.45;1.35;;;11.50;99.90;;;;;;5095045;28;20032;-74
2023/12/25 01:40:53;;;;;;;0.90;0.90;;;11.70;99.90;;;;;;5094991;28;20170;-75
2023/12/25 01:43:19;;;;;;;0.70;0.70;;;11.40;99.90;;;;;;5094741;28;20042;-75
2023/12/25 01:45:44;;;;;;;0.93;0.93;;;11.40;99.90;;;;;;5094900;28;20081;-75
2023/12/25 01:48:11;;;;;;;0.90;0.90;;;11.40;99.90;;;;;;5095107;28;20448;-75
2023/12/25 01:50:38;;;;;;;0.70;0.70;;;11.40;99.90;;;;;;5094459;28;20044;-75
2023/12/25 01:53:04;;;;;;;;;;;11.40;99.90;;;;;;5095168;28;20043;-75
2023/12/25 01:55:30;;;;;;;1.65;1.55;;;11.40;99.90;;;;;;5094435;28;20023;-74
2023/12/25 01:57:55;;;;;;;0.63;0.63;;;11.40;99.90;;;;;;5094648;28;20040;-75
2023/12/25 02:00:21;;;;;;;0.80;0.80;;;11.40;99.90;;;;;;5094923;28;20105;-75
2023/12/25 02:02:47;;;;;;;0.80;0.80;;;11.40;99.90;;;;;;5094492;28;20040;-74
2023/12/25 02:05:12;;;;;;;0.70;0.70;;;11.40;99.90;;;;;;5094811;28;20047;-75
2023/12/25 02:07:41;;;;;;;0.70;0.70;;;11.30;99.90;;;;;;5094422;28;20032;-75
2023/12/25 02:10:08;;;;;;;0.70;0.70;;;11.30;99.90;;;;;;5094216;28;20044;-75
2023/12/25 02:12:34;;;;;;;0.80;0.80;;;11.30;99.90;;;;;;5093266;28;20032;-74
2023/12/25 02:15:00;;;;;;;0.70;0.70;;;11.30;99.90;;;;;;5094367;28;20051;-74
2023/12/25 02:17:26;;;;;;;0.70;0.70;;;11.30;99.90;;;;;;5094621;28;20070;-75
2023/12/25 02:19:53;;;;;;;0.70;0.70;;;11.30;99.90;;;;;;5094383;28;20090;-74
2023/12/25 02:22:19;;;;;;;0.70;0.70;;;11.60;99.90;;;;;;5094213;28;20083;-74
2023/12/25 02:24:55;;;;;;;0.70;0.70;;;11.30;99.90;;;;;;5094151;28;20055;-75
2023/12/25 02:27:20;;;;;;;0.70;0.70;;;11.30;99.90;;;;;;5094199;28;20467;-74
2023/12/25 02:29:46;;;;;;;0.80;0.80;;;11.20;99.90;;;;;;5094129;28;20028;-75
2023/12/25 02:32:11;;;;;;;0.70;0.70;;;11.40;99.90;;;;;;5094129;28;20407;-74
2023/12/25 02:34:37;;;;;;;0.70;0.70;;;11.20;99.90;;;;;;5093869;28;20032;-75
2023/12/25 02:37:03;;;;;;;0.70;0.70;;;11.20;99.90;;;;;;5094009;28;20040;-75
2023/12/25 02:39:28;;;;;;;0.80;0.80;;;11.20;99.90;;;;;;5094023;28;20102;-75
2023/12/25 02:41:54;;;;;;;0.70;0.70;;;11.20;99.90;;;;;;5094018;28;20046;-74
2023/12/25 02:44:19;;;;;;;0.68;0.68;;;11.10;99.90;;;;;;5093860;28;20376;-74
2023/12/25 02:46:45;;;;;;;1.15;1.08;;;11.20;99.90;;;;;;5093759;28;20115;-75
2023/12/25 02:49:11;;;;;;;0.70;0.70;;;11.10;99.90;;;;;;5093811;28;20032;-74
2023/12/25 02:51:36;;;;;;;0.70;0.70;;;11.10;99.90;;;;;;5093997;28;20055;-75
2023/12/25 02:54:02;;;;;;;0.70;0.70;;;11.20;99.90;;;;;;5093785;28;20059;-75
2023/12/25 02:56:27;;;;;;;2.92;2.08;;;11.10;99.90;;;;;;5093890;28;20042;-74
2023/12/25 02:58:53;;;;;;;0.70;0.70;;;11.20;99.90;;;;;;5093865;28;20100;-75
2023/12/25 03:01:18;;;;;;;0.70;0.70;;;11.20;99.90;;;;;;5094089;28;20047;-75
2023/12/25 03:03:44;;;;;;;0.80;0.80;;;11.10;99.90;;;;;;5098072;28;20085;-74
2023/12/25 03:06:10;;;;;;;1.35;1.25;;;11.30;99.90;;;;;;5097869;28;20498;-75
2023/12/25 03:08:35;;;;;;;1.52;1.05;;;11.10;99.90;;;;;;5097855;28;20058;-75
2023/12/25 03:11:01;;;;;;;0.70;0.70;;;11.10;99.90;;;;;;5097858;28;20043;-74
2023/12/25 03:13:26;;;;;;;0.70;0.70;;;11.10;99.90;;;;;;5097824;28;20043;-75
2023/12/25 03:15:52;;;;;;;0.70;0.70;;;11.10;99.90;;;;;;5097825;28;20541;-75
2023/12/25 03:18:18;;;;;;;0.77;0.77;;;11.10;99.90;;;;;;5097752;28;20464;-74
2023/12/25 03:20:43;;;;;;;0.80;0.80;;;11.10;99.90;;;;;;5097744;28;20039;-75
2023/12/25 03:23:10;;;;;;;0.80;0.80;;;11.10;99.90;;;;;;5097559;28;20071;-76
2023/12/25 03:25:35;;;;;;;0.90;0.90;;;11.10;99.90;;;;;;5097531;28;20071;-76
2023/12/25 03:28:01;;;;;;;3.00;2.70;;;11.10;99.90;;;;;;5097365;28;20105;-75
2023/12/25 03:30:26;;;;;;;0.70;0.70;;;11.10;99.90;;;;;;5097482;28;20054;-75
2023/12/25 03:32:52;;;;;;;0.70;0.70;;;11.10;99.90;;;;;;5097477;28;20522;-74
2023/12/25 03:35:17;;;;;;;0.70;0.70;;;11.20;99.90;;;;;;5096523;28;20039;-74
2023/12/25 03:37:43;;;;;;;0.70;0.70;;;11.10;99.90;;;;;;5097273;28;20111;-75
2023/12/25 03:40:09;;;;;;;0.70;0.70;;;11.10;99.90;;;;;;5097374;28;20120;-74
2023/12/25 03:42:35;;;;;;;0.90;0.90;;;11.20;99.90;;;;;;5097667;28;20039;-75
2023/12/25 03:45:00;;;;;;;0.73;0.73;;;11.20;99.90;;;;;;5097262;28;20039;-75
2023/12/25 03:47:28;;;;;;;0.75;0.75;;;11.20;99.90;;;;;;5097253;28;20464;-75
2023/12/25 03:49:54;;;;;;;0.70;0.70;;;11.20;99.90;;;;;;5097048;28;20036;-74
2023/12/25 03:52:19;;;;;;;0.70;0.70;;;11.10;99.90;;;;;;5097027;28;20421;-74
2023/12/25 03:54:45;;;;;;;0.80;0.80;;;11.20;99.90;;;;;;5097051;28;20036;-74
2023/12/25 03:57:11;;;;;;;0.70;0.70;;;11.20;99.90;;;;;;5097011;28;20131;-75
2023/12/25 03:59:39;;;;;;;6.22;2.00;;;11.10;99.90;;;;;;5096972;28;20040;-74
2023/12/25 04:02:04;;;;;;;0.70;0.70;;;11.10;99.90;;;;;;5096919;28;20468;-75
2023/12/25 04:04:30;;;;;;;1.13;1.08;;;11.10;99.90;;;;;;5097259;28;20077;-74
2023/12/25 04:06:56;;;;;;;0.70;0.70;;;11.10;99.90;;;;;;5096688;28;20032;-75
2023/12/25 04:09:22;;;;;;;0.75;0.75;;;11.10;99.90;;;;;;5095462;28;20448;-73
2023/12/25 04:11:47;;;;;;;0.70;0.70;;;11.10;99.90;;;;;;5096134;28;20071;-73
2023/12/25 04:14:13;;;;;;;0.70;0.70;;;11.10;99.90;;;;;;5096619;28;20040;-73
2023/12/25 04:16:39;;;;;;;0.70;0.70;;;11.10;99.90;;;;;;5096614;28;20491;-73
2023/12/25 04:19:04;;;;;;;0.70;0.70;;;10.90;99.90;;;;;;5096180;28;20047;-73
2023/12/25 04:21:31;;;;;;;0.70;0.70;;;11.70;99.90;;;;;;5096504;28;20048;-73
2023/12/25 04:23:57;;;;;;;0.70;0.70;;;11.00;99.90;;;;;;5096891;28;20043;-74
2023/12/25 04:26:24;;;;;;;0.80;0.80;;;11.00;99.90;;;;;;5096884;28;20474;-73
2023/12/25 04:28:50;;;;;;;0.70;0.70;;;11.00;99.90;;;;;;5096208;28;20471;-73
2023/12/25 04:31:16;;;;;;;0.70;0.70;;;11.00;99.90;;;;;;5096268;28;20127;-73
2023/12/25 04:33:42;;;;;;;0.70;0.70;;;11.00;99.90;;;;;;5095135;28;20424;-75
2023/12/25 04:36:08;;;;;;;1.27;0.85;;;11.60;99.90;;;;;;5096503;28;20078;-73
2023/12/25 04:38:34;;;;;;;0.70;0.70;;;11.00;99.90;;;;;;5096217;28;20116;-73
2023/12/25 04:41:00;;;;;;;0.70;0.70;;;11.10;99.90;;;;;;5096125;28;20040;-73
2023/12/25 04:43:25;;;;;;;0.77;0.77;;;11.00;99.90;;;;;;5096102;28;20032;-75
2023/12/25 04:45:51;;;;;;;0.65;0.65;;;11.00;99.90;;;;;;5096052;28;20085;-73
2023/12/25 04:48:17;;;;;;;0.70;0.70;;;11.20;99.90;;;;;;5095977;28;20140;-73
2023/12/25 04:50:43;;;;;;;0.80;0.80;;;11.00;99.90;;;;;;5095884;28;20039;-75
2023/12/25 04:53:09;;;;;;;0.70;0.70;;;11.00;99.90;;;;;;5095838;28;20075;-73
2023/12/25 04:55:36;;;;;;;0.70;0.70;;;11.10;99.90;;;;;;5095863;28;20108;-76
2023/12/25 04:58:02;;;;;;;;;;;11.20;99.90;;;;;;5096192;28;20042;-73
2023/12/25 05:00:28;;;;;;;0.80;0.80;;;11.10;99.90;;;;;;5095591;28;19919;-73
2023/12/25 05:02:53;;;;;;;0.70;0.70;;;11.30;99.90;;;;;;5095767;28;20040;-73
2023/12/25 05:05:19;;;;;;;0.80;0.80;;;11.10;99.90;;;;;;5095677;28;20339;-73
2023/12/25 05:07:45;;;;;;;0.80;0.80;;;11.30;99.90;;;;;;5095615;28;20345;-73
2023/12/25 05:10:11;;;;;;;0.93;0.93;;;11.10;99.90;;;;;;5095955;28;20079;-73
2023/12/25 05:12:37;;;;;;;0.70;0.70;;;11.10;99.90;;;;;;5095554;28;20066;-75
2023/12/25 05:15:03;;;;;;;0.90;0.90;;;11.10;99.90;;;;;;5095423;28;20040;-73
2023/12/25 05:17:28;;;;;;;0.80;0.80;;;11.10;99.90;;;;;;5095436;28;20043;-73
2023/12/25 05:19:54;;;;;;;0.70;0.70;;;11.80;99.90;;;;;;5094332;28;20089;-73
2023/12/25 05:22:20;;;;;;;0.80;0.80;;;11.10;99.90;;;;;;5095332;28;20039;-73
2023/12/25 05:24:45;;;;;;;0.80;0.80;;;11.10;99.90;;;;;;5094736;28;20044;-73
2023/12/25 05:27:11;;;;;;;0.90;0.90;;;11.20;99.90;;;;;;5095254;28;20036;-73
2023/12/25 05:29:37;;;;;;;1.88;1.77;;;11.10;99.90;;;;;;5095495;28;20044;-73
2023/12/25 05:32:03;;;;;;;0.70;0.70;;;11.20;99.90;;;;;;5095396;28;20081;-73
2023/12/25 05:34:28;;;;;;;0.80;0.80;;;11.10;99.90;;;;;;5095682;28;20040;-73
2023/12/25 05:36:54;;;;;;;1.48;1.13;;;11.10;99.90;;;;;;5095073;28;20036;-73
2023/12/25 05:39:20;;;;;;;0.70;0.70;;;11.10;99.90;;;;;;5095038;28;20455;-73
2023/12/25 05:41:45;;;;;;;0.80;0.80;;;12.00;99.90;;;;;;5095358;28;20071;-73
2023/12/25 05:44:11;;;;;;;0.70;0.70;;;11.10;99.90;;;;;;5094963;28;20032;-73
2023/12/25 05:46:37;;;;;;;0.80;0.80;;;11.10;99.90;;;;;;5095153;28;20097;-75
2023/12/25 05:49:03;;;;;;;0.73;0.73;;;11.10;99.90;;;;;;5094887;28;20529;-75
2023/12/25 05:51:29;;;;;;;0.80;0.80;;;11.10;99.90;;;;;;5094545;28;20349;-73
2023/12/25 05:53:54;;;;;;;0.80;0.80;;;11.10;99.90;;;;;;5095498;28;20042;-73
2023/12/25 05:56:20;;;;;;;0.70;0.70;;;11.60;99.90;;;;;;5094743;28;20118;-73
2023/12/25 05:58:45;;;;;;;0.77;0.77;;;11.10;99.90;;;;;;5094973;28;20072;-73
2023/12/25 06:01:13;;;;;;;0.80;0.80;;;11.00;99.90;;;;;;5094637;28;20040;-75
2023/12/25 06:03:39;;;;;;;1.10;1.00;;;11.00;99.90;;;;;;5094525;28;20506;-75
2023/12/25 06:06:05;;;;;;;0.70;0.70;;;11.00;99.90;;;;;;5094535;28;20118;-73
2023/12/25 06:08:30;;;;;;;0.80;0.80;;;11.00;99.90;;;;;;5094539;28;20115;-75
2023/12/25 06:10:57;;;;;;;0.70;0.70;;;11.00;99.90;;;;;;5094389;28;20028;-73
2023/12/25 06:13:22;;;;;;;0.80;0.80;;;11.00;99.90;;;;;;5094451;28;20089;-72
2023/12/25 06:15:51;;;;;;;0.70;0.70;;;11.00;99.90;;;;;;5094594;28;20040;-72
2023/12/25 06:18:17;;;;;;;0.80;0.80;;;11.00;99.90;;;;;;5094267;28;20083;-75
2023/12/25 06:20:43;;;;;;;1.75;1.60;;;11.40;99.90;;;;;;5094253;28;20101;-72
2023/12/25 06:23:09;;;;;;;0.70;0.70;;;11.00;99.90;;;;;;5094206;28;20063;-72
2023/12/25 06:25:35;;;;;;;1.50;1.40;;;11.30;99.90;;;;;;5094243;28;20323;-79
2023/12/25 06:28:01;;;;;;;0.70;0.70;;;11.00;99.90;;;;;;5094673;28;20040;-75
2023/12/25 06:30:26;;;;;;;0.80;0.80;;;10.90;99.90;;;;;;5094071;28;20036;-72
2023/12/25 06:32:52;;;;;;;0.70;0.70;;;10.90;99.90;;;;;;5094101;28;20032;-72
2023/12/25 06:35:17;;;;;;;0.80;0.80;;;10.90;99.90;;;;;;5092643;28;20162;-72
2023/12/25 06:37:43;;;;;;;0.80;0.80;;;11.10;99.90;;;;;;5093858;28;20392;-72
2023/12/25 06:40:09;;;;;;;0.80;0.80;;;10.90;99.90;;;;;;5094043;28;20124;-73
2023/12/25 06:42:35;;;;;;;9.25;3.03;;;10.90;99.90;;;;;;5092521;28;20498;-73
2023/12/25 06:45:01;;;;;;;0.90;0.90;;;10.90;99.90;;;;;;5093507;28;20044;-75
2023/12/25 06:47:26;;;;;;;0.80;0.80;;;11.70;99.90;;;;;;5093511;28;20245;-77
2023/12/25 06:49:52;;;;;;;1.80;1.70;;;11.20;99.90;;;;;;5093333;28;20032;-76
2023/12/25 06:52:18;;;;;;;0.70;0.70;;;10.80;99.90;;;;;;5092367;28;20052;-78
2023/12/25 06:54:44;;;;;;;0.70;0.70;;;10.80;99.90;;;;;;5092657;28;20044;-76
2023/12/25 06:57:11;;;;;;;0.77;0.77;;;10.80;99.90;;;;;;5091761;28;20464;-79
2023/12/25 06:59:37;;;;;;;0.70;0.70;;;10.70;99.90;;;;;;5092581;28;20697;-77
2023/12/25 07:02:03;;;;;;;0.90;0.90;;;11.10;99.90;;;;;;5090881;28;20127;-74
2023/12/25 07:04:29;;;;;;;0.80;0.80;;;10.70;99.90;;;;;;5093754;28;20115;-75
2023/12/25 07:06:54;;;;;;;10.60;3.22;;;10.70;99.90;;;;;;5093694;28;20036;-74
2023/12/25 07:09:20;;;;;;;0.70;0.70;;;11.00;99.90;;;;;;5093636;28;20547;-77
2023/12/25 07:11:45;;;;;;;0.70;0.70;;;10.70;99.90;;;;;;5093873;28;20062;-76
2023/12/25 07:14:11;;;;;;;0.80;0.80;;;10.70;99.90;;;;;;5093693;28;20036;-75
2023/12/25 07:16:37;;;;;;;0.80;0.80;;;10.60;99.90;;;;;;5093736;28;20040;-79
2023/12/25 07:19:03;;;;;;;0.80;0.80;;;10.60;99.90;;;;;;5093283;28;20205;-76
2023/12/25 07:21:28;;;;;;;0.80;0.80;;;10.60;99.90;;;;;;5091729;28;20502;-73
2023/12/25 07:23:56;;;;;;;0.80;0.80;;;10.60;99.90;;;;;;5093704;28;20032;-74
2023/12/25 07:26:22;;;;;;;0.70;0.70;;;10.60;99.90;;;;;;5092461;28;20054;-73
2023/12/25 07:28:48;;;;;;;0.80;0.80;;;10.60;99.90;;;;;;5093581;28;20467;-76
2023/12/25 07:31:15;;;;;;;0.80;0.80;;;10.60;99.90;;;;;;5093712;28;20040;-74
2023/12/25 07:33:41;;;;;;;0.80;0.80;;;10.50;99.90;;;;;;5093627;28;20380;-76
2023/12/25 07:36:07;;;;;;;1.55;1.45;;;10.90;99.90;;;;;;5093505;28;20036;-76
2023/12/25 07:38:34;;;;;;;0.80;0.80;;;10.60;99.90;;;;;;5093980;28;20089;-75
2023/12/25 07:41:01;;;;;;;0.70;0.70;;;10.60;99.90;;;;;;5093467;28;20086;-75
2023/12/25 07:43:27;;;;;;;0.70;0.70;;;10.60;99.90;;;;;;5093460;28;20044;-75
2023/12/25 07:45:53;;;;;;;0.70;0.70;;;10.60;99.90;;;;;;5093412;28;20364;-76
2023/12/25 07:48:19;;;;;;;0.80;0.80;;;10.60;99.90;;;;;;5095581;28;20071;-75
2023/12/25 07:50:45;;;;;;;0.80;0.80;;;10.60;99.90;;;;;;5096973;28;20447;-77
2023/12/25 07:53:10;;;;;;;0.80;0.80;;;10.50;99.90;;;;;;5097544;28;20032;-77
2023/12/25 07:55:38;;;;;;;0.80;0.80;;;10.60;99.90;;;;;;5097006;28;20032;-74
2023/12/25 07:58:04;;;;;;;0.80;0.80;;;10.60;99.90;;;;;;5097006;28;20051;-76
2023/12/25 08:00:29;;;;;;;0.80;0.80;;;10.50;99.90;;;;;;5097032;28;20040;-74
2023/12/25 08:02:55;;;;;;;0.80;0.80;;;10.60;99.90;;;;;;5096915;28;20051;-77
2023/12/25 08:05:21;;;;;;;0.70;0.70;;;10.50;99.90;;;;;;5096815;28;20043;-76
2023/12/25 08:07:47;;;;;;;0.75;0.75;;;10.50;99.90;;;;;;5096854;28;20545;-76
2023/12/25 08:10:13;;;;;;;0.75;0.75;;;10.40;99.90;;;;;;5097236;28;20040;-75
2023/12/25 08:12:43;;;;;;;0.80;0.80;;;10.40;99.90;;;;;;5096724;28;20494;-74
2023/12/25 08:15:11;;;;;;;0.77;0.77;;;11.40;99.90;;;;;;5096479;28;20550;-74
2023/12/25 08:17:36;;;;;;;0.80;0.80;;;10.40;99.90;;;;;;5096392;28;20044;-76
2023/12/25 08:20:02;;;;;;;0.70;0.70;;;10.40;99.90;;;;;;5096621;28;20048;-75
2023/12/25 08:22:27;;;;;;;0.80;0.80;;;10.30;99.90;;;;;;5096236;28;20127;-76
2023/12/25 08:24:53;;;;;;;0.70;0.70;;;10.40;99.90;;;;;;5096579;28;20044;-78
2023/12/25 08:27:19;;;;;;;0.80;0.80;;;10.10;99.90;;;;;;5096389;28;20467;-76
2023/12/25 08:29:44;;;;;;;0.80;0.80;;;10.30;99.90;;;;;;5096244;28;20468;-76
2023/12/25 08:32:10;;;;;;;0.98;0.90;;;10.30;99.90;;;;;;5096468;28;20115;-73
2023/12/25 08:34:38;;;;;;;0.73;0.73;;;10.30;99.90;;;;;;5096282;28;20472;-76
2023/12/25 08:37:04;;;;;;;0.90;0.90;;;10.40;99.90;;;;;;5096264;28;20097;-76
2023/12/25 08:39:29;;;;;;;0.70;0.70;;;11.00;99.90;;;;;;5096595;28;20036;-77
2023/12/25 08:41:57;;;;;;;0.80;0.80;;;10.30;99.90;;;;;;5096604;28;20043;-75
2023/12/25 08:44:23;;;;;;;0.80;0.80;;;10.30;99.90;;;;;;5096126;28;20063;-76
2023/12/25 08:46:49;;;;;;;0.70;0.70;;;10.20;99.90;;;;;;5096060;28;20043;-76
2023/12/25 08:49:14;;;;;;;0.80;0.80;;;10.90;99.90;;;;;;5095935;28;20040;-75
2023/12/25 08:51:40;;;;;;;0.73;0.73;;;10.20;99.90;;;;;;5096173;28;20039;-76
2023/12/25 08:54:07;;;;;;;0.80;0.80;;;10.20;99.90;;;;;;5095975;28;20097;-78
2023/12/25 08:56:33;;;;;;;0.70;0.70;;;10.20;99.90;;;;;;5095922;28;20040;-74
2023/12/25 08:59:00;;;;;;;0.73;0.73;;;10.20;99.90;;;;;;5095134;28;20114;-77
2023/12/25 09:01:26;;;;;;;0.80;0.80;;;10.20;99.90;;;;;;5095892;28;20044;-77
2023/12/25 09:03:52;;;;;;;0.70;0.70;;;10.20;99.90;;;;;;5095783;28;20047;-74
2023/12/25 09:06:17;;;;;;;0.70;0.70;;;10.20;99.90;;;;;;5095735;28;20048;-77
2023/12/25 09:08:43;;;;;;;0.93;0.93;;;10.10;99.90;;;;;;5095464;28;20043;-74
2023/12/25 09:11:10;;;;;;;0.70;0.70;;;10.20;99.90;;;;;;5095569;28;20032;-75
2023/12/25 09:13:35;;;;;;;0.63;0.63;;;10.10;99.90;;;;;;5095561;28;20035;-77
2023/12/25 09:16:01;;;;;;;0.70;0.70;;;10.20;99.90;;;;;;5095589;28;20485;-74
2023/12/25 09:18:28;;;;;;;0.75;0.75;;;10.10;99.90;;;;;;5095120;28;20130;-76
2023/12/25 09:20:54;;;;;;;0.80;0.80;;;10.20;99.90;;;;;;5095452;28;20043;-76
2023/12/25 09:23:20;;;;;;;0.70;0.70;;;10.10;99.90;;;;;;5095045;28;20040;-74
2023/12/25 09:25:45;;;;;;;0.80;0.80;;;10.10;99.90;;;;;;5095640;28;20044;-74
2023/12/25 09:28:12;;;;;;;0.70;0.70;;;10.10;99.90;;;;;;5095351;28;20066;-76
2023/12/25 09:30:38;;;;;;;1.70;1.60;;;10.10;99.90;;;;;;5094999;28;20042;-76
2023/12/25 09:33:04;;;;;;;0.70;0.70;;;10.10;99.90;;;;;;5095148;28;20422;-74
2023/12/25 09:35:30;;;;;;;0.80;0.80;;;10.10;99.90;;;;;;5095655;28;20093;-77
2023/12/25 09:37:56;;;;;;;0.70;0.70;;;10.20;99.90;;;;;;5095287;28;20043;-76
2023/12/25 09:40:21;;;;;;;0.80;0.80;;;10.20;99.90;;;;;;5095068;28;20402;-76
2023/12/25 09:42:49;;;;;;;0.80;0.80;;;10.50;99.90;;;;;;5094677;28;20123;-76
2023/12/25 09:45:17;;;;;;;1.05;0.98;;;10.20;99.90;;;;;;5094791;28;20497;-77
2023/12/25 09:47:44;;;;;;;0.90;0.90;;;10.20;99.90;;;;;;5094884;28;20431;-76
2023/12/25 09:50:10;;;;;;;;;;;10.20;99.90;;;;;;5095634;28;20044;-75
2023/12/25 09:52:36;;;;;;;0.80;0.80;;;10.30;99.90;;;;;;5094831;28;19916;-77
2023/12/25 09:55:02;;;;;;;0.80;0.80;;;10.30;99.90;;;;;;5094791;28;20039;-77
2023/12/25 09:57:32;;;;;;;0.80;0.80;;;10.40;99.90;;;;;;5094701;28;20372;-76
2023/12/25 10:00:00;;;;;;;0.80;0.80;;;10.30;99.90;;;;;;5094760;28;20055;-78
2023/12/25 10:02:28;;;;;;;0.80;0.80;;;10.40;99.90;;;;;;5094578;28;20040;-75
2023/12/25 10:04:54;;;;;;;0.80;0.80;;;10.40;99.90;;;;;;5094628;28;20514;-75
2023/12/25 10:07:20;;;;;;;0.77;0.77;;;10.40;99.90;;;;;;5094352;28;20105;-77
2023/12/25 10:09:53;;;;;;;0.80;0.80;;;10.40;99.90;;;;;;5094390;28;20043;-77
2023/12/25 10:12:19;;;;;;;0.70;0.70;;;10.40;99.90;;;;;;5094600;28;20365;-75
2023/12/25 10:14:46;;;;;;;0.70;0.70;;;10.40;99.90;;;;;;5094435;28;20482;-75
2023/12/25 10:17:11;;;;;;;0.73;0.73;;;10.90;99.90;;;;;;5094309;28;20123;-75
2023/12/25 10:19:50;;;;;;;0.80;0.80;;;10.30;99.90;;;;;;5094786;28;20086;-75
2023/12/25 10:22:32;;;;;;;0.70;0.70;;;10.40;99.90;;;;;;5094611;28;20040;-75
2023/12/25 10:25:06;;;;;;;0.70;0.70;;;10.40;99.90;;;;;;5094310;28;20063;-76
2023/12/25 10:27:33;;;;;;;0.70;0.70;;;10.40;99.90;;;;;;5094701;28;20386;-75
2023/12/25 10:29:59;;;;;;;;;;;10.40;99.90;;;;;;5094490;28;20040;-73
2023/12/25 10:32:25;;;;;;;0.70;0.70;;;10.40;99.90;;;;;;5094170;28;19916;-76
2023/12/25 10:34:51;;;;;;;0.80;0.80;;;10.50;99.90;;;;;;5094102;28;20108;-75
2023/12/25 10:37:16;;;;;;;0.70;0.70;;;10.40;99.90;;;;;;5094111;28;20530;-74
2023/12/25 10:39:42;;;;;;;0.70;0.70;;;10.40;99.90;;;;;;5094070;28;20047;-73
2023/12/25 10:42:12;;;;;;;0.70;0.70;;;10.50;99.90;;;;;;5093951;28;20039;-75
2023/12/25 10:44:40;;;;;;;0.70;0.70;;;10.40;99.90;;;;;;5094210;28;20059;-76
2023/12/25 10:47:10;;;;;;;0.70;0.70;;;10.60;99.90;;;;;;5092758;28;20047;-73
2023/12/25 10:49:37;;;;;;;0.70;0.70;;;10.50;99.90;;;;;;5093950;28;20040;-74
2023/12/25 10:52:04;;;;;;;2.35;2.25;;;10.50;99.90;;;;;;5093906;28;20145;-75
2023/12/25 10:54:30;;;;;;;0.70;0.70;;;10.50;99.90;;;;;;5093840;28;20051;-75
2023/12/25 10:56:57;;;;;;;0.70;0.70;;;10.50;99.90;;;;;;5093854;28;20040;-74
2023/12/25 10:59:31;;;;;;;0.60;0.60;;;10.70;99.90;;;;;;5094043;28;20046;-75
2023/12/25 11:02:00;;;;;;;0.63;0.63;;;10.60;99.90;;;;;;5093590;28;20472;-74
2023/12/25 11:04:27;;;;;;;0.60;0.60;;;10.60;99.90;;;;;;5093772;28;20398;-73
2023/12/25 11:06:54;;;;;;;0.70;0.70;;;10.60;99.90;;;;;;5093772;28;20074;-73
2023/12/25 11:09:22;;;;;;;0.70;0.70;;;10.60;99.90;;;;;;5093634;28;20067;-74
2023/12/25 11:11:49;;;;;;;0.70;0.70;;;10.60;99.90;;;;;;5093663;28;20156;-75
2023/12/25 11:14:15;;;;;;;2.55;2.35;;;10.60;99.90;;;;;;5093798;28;20376;-75
2023/12/25 11:16:41;;;;;;;0.80;0.80;;;10.60;99.90;;;;;;5093649;28;20040;-76
2023/12/25 11:19:07;;;;;;;0.80;0.80;;;10.60;99.90;;;;;;5093778;28;20088;-76
2023/12/25 11:21:34;;;;;;;0.60;0.60;;;10.60;99.90;;;;;;5093473;28;20078;-74
2023/12/25 11:24:00;;;;;;;0.70;0.70;;;10.60;99.90;;;;;;5096961;28;20089;-76
2023/12/25 11:26:30;;;;;;;0.65;0.65;;;10.70;99.90;;;;;;5097680;28;20039;-76
2023/12/25 11:29:06;;;;;;;0.70;0.70;;;10.60;99.90;;;;;;5097835;28;20059;-77
2023/12/25 11:31:52;;;;;;;1.17;1.08;;;10.60;99.90;;;;;;5097524;28;20097;-75
2023/12/25 11:34:30;;;;;;;0.60;0.60;;;10.60;99.90;;;;;;5097162;28;20052;-75
2023/12/25 11:37:02;;;;;;;2.55;2.35;;;10.60;99.90;;;;;;5097910;28;20100;-76
2023/12/25 11:39:28;;;;;;;0.70;0.70;;;10.60;99.90;;;;;;5097305;28;20044;-74
2023/12/25 11:41:55;;;;;;;1.35;1.33;;;10.70;99.90;;;;;;5096120;28;20067;-74
2023/12/25 11:44:34;;;;;;;0.70;0.70;;;11.40;99.90;;;;;;5097274;28;20115;-73
2023/12/25 11:47:02;;;;;;;0.70;0.70;;;10.70;99.90;;;;;;5097202;28;20036;-76
2023/12/25 11:49:28;;;;;;;0.60;0.60;;;10.80;99.90;;;;;;5097065;28;20040;-73
2023/12/25 11:51:54;;;;;;;1.73;1.45;;;11.20;99.90;;;;;;5097057;28;20127;-75
2023/12/25 11:54:24;;;;;;;0.70;0.70;;;10.70;99.90;;;;;;5096405;28;20118;-73
2023/12/25 11:56:49;;;;;;;0.70;0.70;;;10.60;99.90;;;;;;5096832;28;20051;-76
2023/12/25 11:59:16;;;;;;;0.70;0.70;;;10.80;99.90;;;;;;5097031;28;20114;-73
2023/12/25 12:01:44;;;;;;;0.60;0.60;;;10.80;99.90;;;;;;5096841;28;20050;-75
2023/12/25 12:04:09;;;;;;;0.70;0.70;;;10.80;99.90;;;;;;5097474;28;20094;-76
2023/12/25 12:06:35;;;;;;;0.70;0.70;;;10.80;99.90;;;;;;5097109;28;20503;-73
2023/12/25 12:09:01;;;;;;;0.60;0.60;;;10.80;99.90;;;;;;5096823;28;20059;-76
2023/12/25 12:11:26;;;;;;;0.70;0.70;;;10.80;99.90;;;;;;5096762;28;20075;-75
2023/12/25 12:13:52;;;;;;;0.70;0.70;;;10.90;99.90;;;;;;5096488;28;20124;-78
2023/12/25 12:16:18;;;;;;;0.75;0.75;;;10.80;99.90;;;;;;5096656;28;20119;-73
2023/12/25 12:18:44;;;;;;;0.75;0.75;;;10.80;99.90;;;;;;5097047;28;20372;-76
2023/12/25 12:21:09;;;;;;;0.70;0.70;;;10.80;99.90;;;;;;5096941;28;20372;-74
2023/12/25 12:23:35;;;;;;;0.60;0.60;;;10.80;99.90;;;;;;5096542;28;20094;-74
2023/12/25 12:26:01;;;;;;;0.60;0.60;;;10.80;99.90;;;;;;5096195;28;20044;-77
2023/12/25 12:28:27;;;;;;;0.80;0.80;;;10.80;99.90;;;;;;5096431;28;20082;-75
2023/12/25 12:30:53;;;;;;;0.70;0.70;;;10.80;99.90;;;;;;5096322;28;20032;-75
2023/12/25 12:33:18;;;;;;;1.48;1.38;;;10.90;99.90;;;;;;5094667;28;20067;-74
2023/12/25 12:35:50;;;;;;;0.70;0.70;;;10.80;99.90;;;;;;5095979;28;20502;-74
2023/12/25 12:38:16;;;;;;;0.70;0.70;;;10.80;99.90;;;;;;5096320;28;20036;-73
2023/12/25 12:40:42;;;;;;;0.70;0.70;;;10.80;99.90;;;;;;5096240;28;20550;-75
2023/12/25 12:43:07;;;;;;;0.70;0.70;;;10.80;99.90;;;;;;5096277;28;20039;-74